sensor_id;sensor_type;location;lat;lon;timestamp;P1;durP1;ratioP1;P2;durP2;ratioP2
41755;SDS011;27435;48.480;9.258;2023-06-22T00:00:51;11.30;;;6.10;;
41755;SDS011;27435;48.480;9.258;2023-06-22T00:03:18;11.93;;;6.65;;
41755;SDS011;27435;48.480;9.258;2023-06-22T00:05:45;9.27;;;5.70;;
41755;SDS011;27435;48.480;9.258;2023-06-22T00:08:11;13.15;;;5.90;;
41755;SDS011;27435;48.480;9.258;2023-06-22T00:10:36;16.45;;;5.80;;
41755;SDS011;27435;48.480;9.258;2023-06-22T00:13:02;12.63;;;6.65;;
41755;SDS011;27435;48.480;9.258;2023-06-22T00:15:28;13.32;;;6.47;;
41755;SDS011;27435;48.480;9.258;2023-06-22T00:17:54;11.68;;;5.35;;
41755;SDS011;27435;48.480;9.258;2023-06-22T00:20:22;9.55;;;5.65;;
41755;SDS011;27435;48.480;9.258;2023-06-22T00:22:47;11.20;;;6.72;;
41755;SDS011;27435;48.480;9.258;2023-06-22T00:25:13;18.73;;;5.88;;
41755;SDS011;27435;48.480;9.258;2023-06-22T00:27:39;14.75;;;6.80;;
41755;SDS011;27435;48.480;9.258;2023-06-22T00:30:04;10.95;;;5.72;;
41755;SDS011;27435;48.480;9.258;2023-06-22T00:32:30;11.45;;;5.90;;
41755;SDS011;27435;48.480;9.258;2023-06-22T00:34:56;14.30;;;6.03;;
41755;SDS011;27435;48.480;9.258;2023-06-22T00:37:22;9.75;;;5.32;;
41755;SDS011;27435;48.480;9.258;2023-06-22T00:39:50;18.75;;;7.03;;
41755;SDS011;27435;48.480;9.258;2023-06-22T00:42:16;13.02;;;5.90;;
41755;SDS011;27435;48.480;9.258;2023-06-22T00:44:42;9.88;;;5.65;;
41755;SDS011;27435;48.480;9.258;2023-06-22T00:47:10;13.15;;;6.05;;
41755;SDS011;27435;48.480;9.258;2023-06-22T00:49:37;11.45;;;6.35;;
41755;SDS011;27435;48.480;9.258;2023-06-22T00:52:03;15.23;;;6.53;;
41755;SDS011;27435;48.480;9.258;2023-06-22T00:54:34;10.85;;;5.70;;
41755;SDS011;27435;48.480;9.258;2023-06-22T00:57:01;15.02;;;6.82;;
41755;SDS011;27435;48.480;9.258;2023-06-22T00:59:27;15.77;;;6.88;;
41755;SDS011;27435;48.480;9.258;2023-06-22T01:01:53;14.77;;;6.63;;
41755;SDS011;27435;48.480;9.258;2023-06-22T01:04:19;13.10;;;6.43;;
41755;SDS011;27435;48.480;9.258;2023-06-22T01:07:02;13.98;;;6.93;;
41755;SDS011;27435;48.480;9.258;2023-06-22T01:09:33;11.70;;;6.35;;
41755;SDS011;27435;48.480;9.258;2023-06-22T01:12:06;11.93;;;6.55;;
41755;SDS011;27435;48.480;9.258;2023-06-22T01:14:43;14.05;;;6.38;;
41755;SDS011;27435;48.480;9.258;2023-06-22T01:17:17;12.05;;;6.95;;
41755;SDS011;27435;48.480;9.258;2023-06-22T01:19:48;11.40;;;6.45;;
41755;SDS011;27435;48.480;9.258;2023-06-22T01:22:21;13.52;;;7.25;;
41755;SDS011;27435;48.480;9.258;2023-06-22T01:30:50;14.32;;;6.78;;
41755;SDS011;27435;48.480;9.258;2023-06-22T01:33:28;10.65;;;6.75;;
41755;SDS011;27435;48.480;9.258;2023-06-22T01:35:54;16.05;;;8.15;;
41755;SDS011;27435;48.480;9.258;2023-06-22T01:38:20;14.20;;;8.77;;
41755;SDS011;27435;48.480;9.258;2023-06-22T01:40:46;14.20;;;9.02;;
41755;SDS011;27435;48.480;9.258;2023-06-22T01:43:12;13.10;;;9.10;;
41755;SDS011;27435;48.480;9.258;2023-06-22T01:45:38;13.52;;;8.73;;
41755;SDS011;27435;48.480;9.258;2023-06-22T01:48:03;15.32;;;8.57;;
41755;SDS011;27435;48.480;9.258;2023-06-22T01:50:29;15.82;;;8.35;;
41755;SDS011;27435;48.480;9.258;2023-06-22T01:52:55;12.75;;;7.28;;
41755;SDS011;27435;48.480;9.258;2023-06-22T01:55:21;12.13;;;7.25;;
41755;SDS011;27435;48.480;9.258;2023-06-22T01:57:46;12.75;;;6.97;;
41755;SDS011;27435;48.480;9.258;2023-06-22T02:00:13;12.65;;;7.78;;
41755;SDS011;27435;48.480;9.258;2023-06-22T02:05:39;13.38;;;7.80;;
41755;SDS011;27435;48.480;9.258;2023-06-22T02:08:21;11.77;;;7.18;;
41755;SDS011;27435;48.480;9.258;2023-06-22T02:10:50;13.02;;;6.75;;
41755;SDS011;27435;48.480;9.258;2023-06-22T02:13:18;15.85;;;7.47;;
41755;SDS011;27435;48.480;9.258;2023-06-22T02:15:45;19.63;;;7.68;;
41755;SDS011;27435;48.480;9.258;2023-06-22T02:18:12;12.65;;;7.60;;
41755;SDS011;27435;48.480;9.258;2023-06-22T02:20:38;16.55;;;7.65;;
41755;SDS011;27435;48.480;9.258;2023-06-22T02:23:05;12.43;;;7.95;;
41755;SDS011;27435;48.480;9.258;2023-06-22T02:25:31;14.18;;;8.10;;
41755;SDS011;27435;48.480;9.258;2023-06-22T02:27:57;13.35;;;7.90;;
41755;SDS011;27435;48.480;9.258;2023-06-22T02:30:23;14.27;;;7.07;;
41755;SDS011;27435;48.480;9.258;2023-06-22T02:32:49;11.07;;;6.47;;
41755;SDS011;27435;48.480;9.258;2023-06-22T02:35:16;9.80;;;7.07;;
41755;SDS011;27435;48.480;9.258;2023-06-22T02:37:42;16.73;;;8.00;;
41755;SDS011;27435;48.480;9.258;2023-06-22T02:40:07;15.20;;;7.18;;
41755;SDS011;27435;48.480;9.258;2023-06-22T02:42:37;13.13;;;7.45;;
41755;SDS011;27435;48.480;9.258;2023-06-22T02:45:04;12.70;;;7.60;;
41755;SDS011;27435;48.480;9.258;2023-06-22T02:47:30;12.90;;;7.20;;
41755;SDS011;27435;48.480;9.258;2023-06-22T02:49:56;14.73;;;8.02;;
41755;SDS011;27435;48.480;9.258;2023-06-22T02:52:22;15.27;;;8.45;;
41755;SDS011;27435;48.480;9.258;2023-06-22T02:54:47;17.80;;;8.68;;
41755;SDS011;27435;48.480;9.258;2023-06-22T02:57:13;15.35;;;8.43;;
41755;SDS011;27435;48.480;9.258;2023-06-22T02:59:39;13.02;;;7.53;;
41755;SDS011;27435;48.480;9.258;2023-06-22T03:02:08;16.60;;;7.88;;
41755;SDS011;27435;48.480;9.258;2023-06-22T03:04:34;13.23;;;8.57;;
41755;SDS011;27435;48.480;9.258;2023-06-22T03:07:00;14.48;;;7.22;;
41755;SDS011;27435;48.480;9.258;2023-06-22T03:09:27;12.00;;;7.90;;
41755;SDS011;27435;48.480;9.258;2023-06-22T03:11:56;10.68;;;6.43;;
41755;SDS011;27435;48.480;9.258;2023-06-22T03:14:22;14.43;;;7.40;;
41755;SDS011;27435;48.480;9.258;2023-06-22T03:16:48;14.60;;;5.78;;
41755;SDS011;27435;48.480;9.258;2023-06-22T03:19:13;13.90;;;6.63;;
41755;SDS011;27435;48.480;9.258;2023-06-22T03:21:39;17.35;;;6.45;;
41755;SDS011;27435;48.480;9.258;2023-06-22T03:24:06;15.70;;;7.10;;
41755;SDS011;27435;48.480;9.258;2023-06-22T03:26:32;20.60;;;7.05;;
41755;SDS011;27435;48.480;9.258;2023-06-22T03:28:58;14.50;;;6.63;;
41755;SDS011;27435;48.480;9.258;2023-06-22T03:31:23;14.18;;;6.70;;
41755;SDS011;27435;48.480;9.258;2023-06-22T03:33:49;12.25;;;7.63;;
41755;SDS011;27435;48.480;9.258;2023-06-22T03:36:16;13.70;;;7.35;;
41755;SDS011;27435;48.480;9.258;2023-06-22T03:38:46;13.35;;;6.28;;
41755;SDS011;27435;48.480;9.258;2023-06-22T03:41:12;12.77;;;6.93;;
41755;SDS011;27435;48.480;9.258;2023-06-22T03:43:38;15.82;;;7.00;;
41755;SDS011;27435;48.480;9.258;2023-06-22T03:46:04;11.70;;;7.07;;
41755;SDS011;27435;48.480;9.258;2023-06-22T03:48:30;10.07;;;6.10;;
41755;SDS011;27435;48.480;9.258;2023-06-22T03:50:55;9.50;;;6.40;;
41755;SDS011;27435;48.480;9.258;2023-06-22T03:53:21;12.18;;;6.80;;
41755;SDS011;27435;48.480;9.258;2023-06-22T03:55:50;14.13;;;6.90;;
41755;SDS011;27435;48.480;9.258;2023-06-22T03:58:17;13.57;;;6.25;;
41755;SDS011;27435;48.480;9.258;2023-06-22T04:00:46;15.57;;;5.93;;
41755;SDS011;27435;48.480;9.258;2023-06-22T04:03:16;17.05;;;6.97;;
41755;SDS011;27435;48.480;9.258;2023-06-22T04:05:45;11.98;;;6.40;;
41755;SDS011;27435;48.480;9.258;2023-06-22T04:08:14;10.02;;;6.13;;
41755;SDS011;27435;48.480;9.258;2023-06-22T04:10:40;12.82;;;6.40;;
41755;SDS011;27435;48.480;9.258;2023-06-22T04:13:06;9.38;;;6.10;;
41755;SDS011;27435;48.480;9.258;2023-06-22T04:15:32;16.95;;;5.60;;
41755;SDS011;27435;48.480;9.258;2023-06-22T04:17:57;11.80;;;6.35;;
41755;SDS011;27435;48.480;9.258;2023-06-22T04:20:23;10.48;;;5.05;;
41755;SDS011;27435;48.480;9.258;2023-06-22T04:22:54;11.20;;;5.35;;
41755;SDS011;27435;48.480;9.258;2023-06-22T04:25:20;13.93;;;6.05;;
41755;SDS011;27435;48.480;9.258;2023-06-22T04:27:47;15.73;;;5.88;;
41755;SDS011;27435;48.480;9.258;2023-06-22T04:30:13;9.60;;;6.10;;
41755;SDS011;27435;48.480;9.258;2023-06-22T04:32:41;11.15;;;5.50;;
41755;SDS011;27435;48.480;9.258;2023-06-22T04:35:07;13.45;;;5.90;;
41755;SDS011;27435;48.480;9.258;2023-06-22T04:37:33;14.27;;;6.18;;
41755;SDS011;27435;48.480;9.258;2023-06-22T04:39:59;11.15;;;5.38;;
41755;SDS011;27435;48.480;9.258;2023-06-22T04:42:27;15.02;;;5.47;;
41755;SDS011;27435;48.480;9.258;2023-06-22T04:44:53;12.77;;;6.53;;
41755;SDS011;27435;48.480;9.258;2023-06-22T04:47:19;12.95;;;6.22;;
41755;SDS011;27435;48.480;9.258;2023-06-22T04:49:45;11.25;;;5.90;;
41755;SDS011;27435;48.480;9.258;2023-06-22T04:52:12;15.27;;;5.80;;
41755;SDS011;27435;48.480;9.258;2023-06-22T04:54:39;13.45;;;6.22;;
41755;SDS011;27435;48.480;9.258;2023-06-22T04:57:12;9.57;;;6.20;;
41755;SDS011;27435;48.480;9.258;2023-06-22T04:59:38;11.90;;;6.03;;
41755;SDS011;27435;48.480;9.258;2023-06-22T05:02:06;13.80;;;6.47;;
41755;SDS011;27435;48.480;9.258;2023-06-22T05:04:33;17.23;;;6.28;;
41755;SDS011;27435;48.480;9.258;2023-06-22T05:07:01;9.77;;;5.95;;
41755;SDS011;27435;48.480;9.258;2023-06-22T05:09:27;12.77;;;5.97;;
41755;SDS011;27435;48.480;9.258;2023-06-22T05:11:54;10.02;;;6.07;;
41755;SDS011;27435;48.480;9.258;2023-06-22T05:14:19;13.38;;;6.40;;
41755;SDS011;27435;48.480;9.258;2023-06-22T05:16:45;14.35;;;5.80;;
41755;SDS011;27435;48.480;9.258;2023-06-22T05:19:11;16.00;;;6.30;;
41755;SDS011;27435;48.480;9.258;2023-06-22T05:21:37;12.38;;;6.18;;
41755;SDS011;27435;48.480;9.258;2023-06-22T05:24:03;17.27;;;6.63;;
41755;SDS011;27435;48.480;9.258;2023-06-22T05:26:30;17.63;;;5.80;;
41755;SDS011;27435;48.480;9.258;2023-06-22T05:28:56;15.32;;;6.22;;
41755;SDS011;27435;48.480;9.258;2023-06-22T05:31:23;14.73;;;5.47;;
41755;SDS011;27435;48.480;9.258;2023-06-22T05:33:52;10.02;;;5.97;;
41755;SDS011;27435;48.480;9.258;2023-06-22T05:36:18;12.75;;;5.70;;
41755;SDS011;27435;48.480;9.258;2023-06-22T05:38:50;21.20;;;5.40;;
41755;SDS011;27435;48.480;9.258;2023-06-22T05:41:16;16.70;;;5.53;;
41755;SDS011;27435;48.480;9.258;2023-06-22T05:43:42;13.38;;;6.18;;
41755;SDS011;27435;48.480;9.258;2023-06-22T05:46:07;16.38;;;5.55;;
41755;SDS011;27435;48.480;9.258;2023-06-22T05:48:33;9.07;;;4.65;;
41755;SDS011;27435;48.480;9.258;2023-06-22T05:50:59;10.52;;;5.65;;
41755;SDS011;27435;48.480;9.258;2023-06-22T05:53:25;10.00;;;5.30;;
41755;SDS011;27435;48.480;9.258;2023-06-22T05:55:50;11.90;;;5.75;;
41755;SDS011;27435;48.480;9.258;2023-06-22T05:58:16;13.02;;;5.90;;
41755;SDS011;27435;48.480;9.258;2023-06-22T06:00:42;11.73;;;5.20;;
41755;SDS011;27435;48.480;9.258;2023-06-22T06:03:08;11.02;;;6.03;;
41755;SDS011;27435;48.480;9.258;2023-06-22T06:05:35;10.35;;;5.93;;
41755;SDS011;27435;48.480;9.258;2023-06-22T06:08:02;12.88;;;6.50;;
41755;SDS011;27435;48.480;9.258;2023-06-22T06:10:32;12.25;;;5.80;;
41755;SDS011;27435;48.480;9.258;2023-06-22T06:12:58;10.05;;;5.35;;
41755;SDS011;27435;48.480;9.258;2023-06-22T06:15:26;9.38;;;5.68;;
41755;SDS011;27435;48.480;9.258;2023-06-22T06:17:52;10.95;;;5.25;;
41755;SDS011;27435;48.480;9.258;2023-06-22T06:20:19;9.23;;;5.50;;
41755;SDS011;27435;48.480;9.258;2023-06-22T06:22:46;12.05;;;5.50;;
41755;SDS011;27435;48.480;9.258;2023-06-22T06:25:13;12.32;;;5.60;;
41755;SDS011;27435;48.480;9.258;2023-06-22T06:27:43;9.25;;;4.72;;
41755;SDS011;27435;48.480;9.258;2023-06-22T06:30:13;8.02;;;5.18;;
41755;SDS011;27435;48.480;9.258;2023-06-22T06:32:40;9.63;;;5.53;;
41755;SDS011;27435;48.480;9.258;2023-06-22T06:35:07;12.35;;;5.78;;
41755;SDS011;27435;48.480;9.258;2023-06-22T06:37:41;11.98;;;4.78;;
41755;SDS011;27435;48.480;9.258;2023-06-22T06:40:11;11.65;;;5.07;;
41755;SDS011;27435;48.480;9.258;2023-06-22T06:42:42;13.65;;;4.80;;
41755;SDS011;27435;48.480;9.258;2023-06-22T06:45:12;13.30;;;4.80;;
41755;SDS011;27435;48.480;9.258;2023-06-22T06:47:45;13.48;;;4.70;;
41755;SDS011;27435;48.480;9.258;2023-06-22T06:50:11;12.07;;;4.60;;
41755;SDS011;27435;48.480;9.258;2023-06-22T06:52:37;14.52;;;5.40;;
41755;SDS011;27435;48.480;9.258;2023-06-22T06:55:03;14.30;;;5.10;;
41755;SDS011;27435;48.480;9.258;2023-06-22T06:57:30;11.73;;;4.90;;
41755;SDS011;27435;48.480;9.258;2023-06-22T06:59:56;9.98;;;4.38;;
41755;SDS011;27435;48.480;9.258;2023-06-22T07:02:22;8.95;;;4.28;;
41755;SDS011;27435;48.480;9.258;2023-06-22T07:04:48;7.35;;;4.15;;
41755;SDS011;27435;48.480;9.258;2023-06-22T07:07:14;9.18;;;4.53;;
41755;SDS011;27435;48.480;9.258;2023-06-22T07:09:39;15.73;;;4.22;;
41755;SDS011;27435;48.480;9.258;2023-06-22T07:12:05;13.13;;;4.45;;
41755;SDS011;27435;48.480;9.258;2023-06-22T07:14:31;12.65;;;4.90;;
41755;SDS011;27435;48.480;9.258;2023-06-22T07:16:57;9.50;;;4.88;;
41755;SDS011;27435;48.480;9.258;2023-06-22T07:19:24;8.75;;;4.82;;
41755;SDS011;27435;48.480;9.258;2023-06-22T07:21:51;12.20;;;4.55;;
41755;SDS011;27435;48.480;9.258;2023-06-22T07:24:16;8.48;;;3.75;;
41755;SDS011;27435;48.480;9.258;2023-06-22T07:26:42;7.93;;;4.70;;
41755;SDS011;27435;48.480;9.258;2023-06-22T07:29:11;11.98;;;4.78;;
41755;SDS011;27435;48.480;9.258;2023-06-22T07:31:37;12.52;;;4.80;;
41755;SDS011;27435;48.480;9.258;2023-06-22T07:34:02;15.00;;;4.90;;
41755;SDS011;27435;48.480;9.258;2023-06-22T07:36:29;9.52;;;5.07;;
41755;SDS011;27435;48.480;9.258;2023-06-22T07:38:55;9.45;;;4.63;;
41755;SDS011;27435;48.480;9.258;2023-06-22T07:41:20;12.55;;;5.38;;
41755;SDS011;27435;48.480;9.258;2023-06-22T07:43:46;13.43;;;5.13;;
41755;SDS011;27435;48.480;9.258;2023-06-22T07:46:12;10.90;;;4.65;;
41755;SDS011;27435;48.480;9.258;2023-06-22T07:48:38;14.73;;;4.97;;
41755;SDS011;27435;48.480;9.258;2023-06-22T07:51:04;14.27;;;5.35;;
41755;SDS011;27435;48.480;9.258;2023-06-22T07:53:31;12.60;;;5.07;;
41755;SDS011;27435;48.480;9.258;2023-06-22T07:55:56;9.30;;;4.78;;
41755;SDS011;27435;48.480;9.258;2023-06-22T07:58:22;12.55;;;5.28;;
41755;SDS011;27435;48.480;9.258;2023-06-22T08:00:48;9.95;;;4.70;;
41755;SDS011;27435;48.480;9.258;2023-06-22T08:03:14;12.80;;;5.15;;
41755;SDS011;27435;48.480;9.258;2023-06-22T08:05:40;11.77;;;5.20;;
41755;SDS011;27435;48.480;9.258;2023-06-22T08:08:05;13.23;;;4.43;;
41755;SDS011;27435;48.480;9.258;2023-06-22T08:10:31;10.38;;;4.95;;
41755;SDS011;27435;48.480;9.258;2023-06-22T08:12:57;14.98;;;5.13;;
41755;SDS011;27435;48.480;9.258;2023-06-22T08:15:22;15.05;;;4.35;;
41755;SDS011;27435;48.480;9.258;2023-06-22T08:17:48;12.55;;;4.68;;
41755;SDS011;27435;48.480;9.258;2023-06-22T08:20:13;12.48;;;5.40;;
41755;SDS011;27435;48.480;9.258;2023-06-22T08:22:40;12.27;;;4.35;;
41755;SDS011;27435;48.480;9.258;2023-06-22T08:25:07;9.35;;;4.72;;
41755;SDS011;27435;48.480;9.258;2023-06-22T08:27:33;9.48;;;4.45;;
41755;SDS011;27435;48.480;9.258;2023-06-22T08:29:59;11.40;;;4.85;;
41755;SDS011;27435;48.480;9.258;2023-06-22T08:32:26;9.10;;;4.82;;
41755;SDS011;27435;48.480;9.258;2023-06-22T08:34:53;12.50;;;4.60;;
41755;SDS011;27435;48.480;9.258;2023-06-22T08:37:20;11.30;;;5.22;;
41755;SDS011;27435;48.480;9.258;2023-06-22T08:39:55;10.55;;;5.07;;
41755;SDS011;27435;48.480;9.258;2023-06-22T08:42:24;16.00;;;5.25;;
41755;SDS011;27435;48.480;9.258;2023-06-22T08:44:50;10.00;;;4.60;;
41755;SDS011;27435;48.480;9.258;2023-06-22T08:47:16;15.30;;;5.35;;
41755;SDS011;27435;48.480;9.258;2023-06-22T08:49:42;12.40;;;5.07;;
41755;SDS011;27435;48.480;9.258;2023-06-22T08:52:07;10.93;;;5.43;;
41755;SDS011;27435;48.480;9.258;2023-06-22T08:54:33;13.23;;;4.72;;
41755;SDS011;27435;48.480;9.258;2023-06-22T08:57:00;11.63;;;4.97;;
41755;SDS011;27435;48.480;9.258;2023-06-22T08:59:27;8.57;;;4.45;;
41755;SDS011;27435;48.480;9.258;2023-06-22T09:01:53;11.95;;;5.35;;
41755;SDS011;27435;48.480;9.258;2023-06-22T09:04:18;8.32;;;4.93;;
41755;SDS011;27435;48.480;9.258;2023-06-22T09:06:47;13.38;;;5.07;;
41755;SDS011;27435;48.480;9.258;2023-06-22T09:09:13;12.23;;;4.93;;
41755;SDS011;27435;48.480;9.258;2023-06-22T09:11:39;11.48;;;5.03;;
41755;SDS011;27435;48.480;9.258;2023-06-22T09:14:05;9.43;;;5.20;;
41755;SDS011;27435;48.480;9.258;2023-06-22T09:16:31;13.63;;;5.15;;
41755;SDS011;27435;48.480;9.258;2023-06-22T09:18:57;13.18;;;5.03;;
41755;SDS011;27435;48.480;9.258;2023-06-22T09:21:23;11.98;;;5.25;;
41755;SDS011;27435;48.480;9.258;2023-06-22T09:23:48;14.07;;;5.35;;
41755;SDS011;27435;48.480;9.258;2023-06-22T09:26:18;10.63;;;5.50;;
41755;SDS011;27435;48.480;9.258;2023-06-22T09:28:44;10.32;;;4.57;;
41755;SDS011;27435;48.480;9.258;2023-06-22T09:31:10;11.63;;;5.45;;
41755;SDS011;27435;48.480;9.258;2023-06-22T09:33:36;11.38;;;5.15;;
41755;SDS011;27435;48.480;9.258;2023-06-22T09:36:05;14.02;;;4.82;;
41755;SDS011;27435;48.480;9.258;2023-06-22T09:38:34;10.07;;;5.13;;
41755;SDS011;27435;48.480;9.258;2023-06-22T09:41:00;11.00;;;5.65;;
41755;SDS011;27435;48.480;9.258;2023-06-22T09:43:26;13.25;;;5.40;;
41755;SDS011;27435;48.480;9.258;2023-06-22T09:45:52;15.32;;;5.82;;
41755;SDS011;27435;48.480;9.258;2023-06-22T09:48:18;17.52;;;5.78;;
41755;SDS011;27435;48.480;9.258;2023-06-22T09:50:43;14.60;;;5.50;;
41755;SDS011;27435;48.480;9.258;2023-06-22T09:53:09;16.42;;;5.25;;
41755;SDS011;27435;48.480;9.258;2023-06-22T09:55:34;12.55;;;5.65;;
41755;SDS011;27435;48.480;9.258;2023-06-22T09:58:00;14.90;;;5.30;;
41755;SDS011;27435;48.480;9.258;2023-06-22T10:00:26;12.80;;;5.72;;
41755;SDS011;27435;48.480;9.258;2023-06-22T10:02:51;10.95;;;5.22;;
41755;SDS011;27435;48.480;9.258;2023-06-22T10:05:17;11.23;;;5.95;;
41755;SDS011;27435;48.480;9.258;2023-06-22T10:07:43;9.95;;;5.35;;
41755;SDS011;27435;48.480;9.258;2023-06-22T10:10:09;11.40;;;5.10;;
41755;SDS011;27435;48.480;9.258;2023-06-22T10:12:36;11.77;;;5.88;;
41755;SDS011;27435;48.480;9.258;2023-06-22T10:15:02;14.13;;;5.38;;
41755;SDS011;27435;48.480;9.258;2023-06-22T10:17:28;9.15;;;4.50;;
41755;SDS011;27435;48.480;9.258;2023-06-22T10:19:53;15.48;;;6.20;;
41755;SDS011;27435;48.480;9.258;2023-06-22T10:22:19;14.50;;;5.57;;
41755;SDS011;27435;48.480;9.258;2023-06-22T10:24:44;12.93;;;5.40;;
41755;SDS011;27435;48.480;9.258;2023-06-22T10:27:11;11.18;;;5.15;;
41755;SDS011;27435;48.480;9.258;2023-06-22T10:29:37;15.27;;;5.28;;
41755;SDS011;27435;48.480;9.258;2023-06-22T10:32:02;11.23;;;5.22;;
41755;SDS011;27435;48.480;9.258;2023-06-22T10:34:28;14.93;;;5.50;;
41755;SDS011;27435;48.480;9.258;2023-06-22T10:36:54;12.82;;;5.07;;
41755;SDS011;27435;48.480;9.258;2023-06-22T10:39:19;12.55;;;4.75;;
41755;SDS011;27435;48.480;9.258;2023-06-22T10:41:45;11.77;;;4.63;;
41755;SDS011;27435;48.480;9.258;2023-06-22T10:44:11;12.95;;;5.10;;
41755;SDS011;27435;48.480;9.258;2023-06-22T10:46:37;13.73;;;4.50;;
41755;SDS011;27435;48.480;9.258;2023-06-22T10:49:02;12.02;;;4.68;;
41755;SDS011;27435;48.480;9.258;2023-06-22T10:51:28;14.55;;;4.93;;
41755;SDS011;27435;48.480;9.258;2023-06-22T10:53:54;15.02;;;4.70;;
41755;SDS011;27435;48.480;9.258;2023-06-22T10:56:19;13.68;;;4.68;;
41755;SDS011;27435;48.480;9.258;2023-06-22T10:58:45;15.07;;;5.40;;
41755;SDS011;27435;48.480;9.258;2023-06-22T11:01:11;11.75;;;4.47;;
41755;SDS011;27435;48.480;9.258;2023-06-22T11:03:36;13.10;;;5.43;;
41755;SDS011;27435;48.480;9.258;2023-06-22T11:06:02;10.25;;;4.97;;
41755;SDS011;27435;48.480;9.258;2023-06-22T11:08:28;14.50;;;4.93;;
41755;SDS011;27435;48.480;9.258;2023-06-22T11:10:53;18.55;;;5.25;;
41755;SDS011;27435;48.480;9.258;2023-06-22T11:13:19;13.07;;;5.55;;
41755;SDS011;27435;48.480;9.258;2023-06-22T11:15:44;13.80;;;4.93;;
41755;SDS011;27435;48.480;9.258;2023-06-22T11:18:10;16.27;;;5.82;;
41755;SDS011;27435;48.480;9.258;2023-06-22T11:20:36;13.52;;;5.65;;
41755;SDS011;27435;48.480;9.258;2023-06-22T11:23:06;17.33;;;5.20;;
41755;SDS011;27435;48.480;9.258;2023-06-22T11:25:32;14.80;;;5.25;;
41755;SDS011;27435;48.480;9.258;2023-06-22T11:28:01;16.35;;;5.07;;
41755;SDS011;27435;48.480;9.258;2023-06-22T11:30:28;10.90;;;4.38;;
41755;SDS011;27435;48.480;9.258;2023-06-22T11:32:53;15.52;;;4.85;;
41755;SDS011;27435;48.480;9.258;2023-06-22T11:35:19;17.73;;;5.72;;
41755;SDS011;27435;48.480;9.258;2023-06-22T11:37:44;15.02;;;4.75;;
41755;SDS011;27435;48.480;9.258;2023-06-22T11:40:10;13.73;;;4.70;;
41755;SDS011;27435;48.480;9.258;2023-06-22T11:42:36;14.32;;;4.78;;
41755;SDS011;27435;48.480;9.258;2023-06-22T11:45:02;14.95;;;4.60;;
41755;SDS011;27435;48.480;9.258;2023-06-22T11:47:29;14.80;;;4.95;;
41755;SDS011;27435;48.480;9.258;2023-06-22T11:49:55;16.05;;;4.82;;
41755;SDS011;27435;48.480;9.258;2023-06-22T11:52:21;15.35;;;4.70;;
41755;SDS011;27435;48.480;9.258;2023-06-22T11:54:46;14.75;;;4.78;;
41755;SDS011;27435;48.480;9.258;2023-06-22T11:57:12;11.45;;;4.82;;
41755;SDS011;27435;48.480;9.258;2023-06-22T11:59:37;12.82;;;4.82;;
41755;SDS011;27435;48.480;9.258;2023-06-22T12:02:03;13.95;;;5.25;;
41755;SDS011;27435;48.480;9.258;2023-06-22T12:04:30;12.05;;;4.88;;
41755;SDS011;27435;48.480;9.258;2023-06-22T12:06:56;11.52;;;5.25;;
41755;SDS011;27435;48.480;9.258;2023-06-22T12:09:21;11.60;;;4.72;;
41755;SDS011;27435;48.480;9.258;2023-06-22T12:11:47;16.00;;;4.35;;
41755;SDS011;27435;48.480;9.258;2023-06-22T12:14:13;19.15;;;4.55;;
41755;SDS011;27435;48.480;9.258;2023-06-22T12:16:38;17.45;;;5.05;;
41755;SDS011;27435;48.480;9.258;2023-06-22T12:19:04;18.65;;;5.20;;
41755;SDS011;27435;48.480;9.258;2023-06-22T12:21:29;14.02;;;5.63;;
41755;SDS011;27435;48.480;9.258;2023-06-22T12:23:55;16.23;;;5.63;;
41755;SDS011;27435;48.480;9.258;2023-06-22T12:26:21;13.27;;;4.47;;
41755;SDS011;27435;48.480;9.258;2023-06-22T12:28:47;13.85;;;5.35;;
41755;SDS011;27435;48.480;9.258;2023-06-22T12:31:14;16.13;;;5.32;;
41755;SDS011;27435;48.480;9.258;2023-06-22T12:33:39;12.77;;;5.53;;
41755;SDS011;27435;48.480;9.258;2023-06-22T12:36:05;13.88;;;5.22;;
41755;SDS011;27435;48.480;9.258;2023-06-22T12:38:31;15.98;;;5.55;;
41755;SDS011;27435;48.480;9.258;2023-06-22T12:40:56;16.90;;;5.30;;
41755;SDS011;27435;48.480;9.258;2023-06-22T12:43:22;15.30;;;5.07;;
41755;SDS011;27435;48.480;9.258;2023-06-22T12:45:47;15.23;;;5.25;;
41755;SDS011;27435;48.480;9.258;2023-06-22T12:48:13;15.02;;;5.22;;
41755;SDS011;27435;48.480;9.258;2023-06-22T12:50:39;14.75;;;4.82;;
41755;SDS011;27435;48.480;9.258;2023-06-22T12:53:04;8.65;;;4.70;;
41755;SDS011;27435;48.480;9.258;2023-06-22T12:55:31;12.88;;;4.97;;
41755;SDS011;27435;48.480;9.258;2023-06-22T12:57:57;17.15;;;5.82;;
41755;SDS011;27435;48.480;9.258;2023-06-22T13:00:22;18.08;;;5.40;;
41755;SDS011;27435;48.480;9.258;2023-06-22T13:02:48;13.43;;;5.00;;
41755;SDS011;27435;48.480;9.258;2023-06-22T13:05:14;14.57;;;4.57;;
41755;SDS011;27435;48.480;9.258;2023-06-22T13:07:39;13.23;;;6.03;;
41755;SDS011;27435;48.480;9.258;2023-06-22T13:10:07;18.63;;;4.75;;
41755;SDS011;27435;48.480;9.258;2023-06-22T13:12:33;13.25;;;4.72;;
41755;SDS011;27435;48.480;9.258;2023-06-22T13:14:58;14.02;;;5.13;;
41755;SDS011;27435;48.480;9.258;2023-06-22T13:17:24;9.25;;;4.70;;
41755;SDS011;27435;48.480;9.258;2023-06-22T13:19:50;11.18;;;5.35;;
41755;SDS011;27435;48.480;9.258;2023-06-22T13:25:13;8.63;;;5.05;;
41755;SDS011;27435;48.480;9.258;2023-06-22T13:27:44;14.05;;;5.07;;
41755;SDS011;27435;48.480;9.258;2023-06-22T13:30:09;12.68;;;4.40;;
41755;SDS011;27435;48.480;9.258;2023-06-22T13:32:35;8.85;;;4.82;;
41755;SDS011;27435;48.480;9.258;2023-06-22T13:35:01;12.27;;;5.38;;
41755;SDS011;27435;48.480;9.258;2023-06-22T13:37:27;13.35;;;5.50;;
41755;SDS011;27435;48.480;9.258;2023-06-22T13:39:53;17.15;;;5.80;;
41755;SDS011;27435;48.480;9.258;2023-06-22T13:42:21;12.75;;;5.03;;
41755;SDS011;27435;48.480;9.258;2023-06-22T13:44:48;15.38;;;5.95;;
41755;SDS011;27435;48.480;9.258;2023-06-22T13:47:13;14.30;;;5.00;;
41755;SDS011;27435;48.480;9.258;2023-06-22T13:49:39;18.10;;;5.13;;
41755;SDS011;27435;48.480;9.258;2023-06-22T13:52:04;14.15;;;5.05;;
41755;SDS011;27435;48.480;9.258;2023-06-22T13:54:35;12.45;;;4.55;;
41755;SDS011;27435;48.480;9.258;2023-06-22T13:57:01;17.42;;;5.03;;
41755;SDS011;27435;48.480;9.258;2023-06-22T13:59:26;11.32;;;5.13;;
41755;SDS011;27435;48.480;9.258;2023-06-22T14:01:53;11.93;;;4.75;;
41755;SDS011;27435;48.480;9.258;2023-06-22T14:04:18;12.30;;;4.68;;
41755;SDS011;27435;48.480;9.258;2023-06-22T14:06:44;11.40;;;5.18;;
41755;SDS011;27435;48.480;9.258;2023-06-22T14:09:10;12.00;;;5.07;;
41755;SDS011;27435;48.480;9.258;2023-06-22T14:11:35;11.77;;;5.25;;
41755;SDS011;27435;48.480;9.258;2023-06-22T14:14:01;15.25;;;5.10;;
41755;SDS011;27435;48.480;9.258;2023-06-22T14:16:27;14.02;;;5.30;;
41755;SDS011;27435;48.480;9.258;2023-06-22T14:18:52;12.93;;;5.15;;
41755;SDS011;27435;48.480;9.258;2023-06-22T14:21:18;14.52;;;6.25;;
41755;SDS011;27435;48.480;9.258;2023-06-22T14:23:44;21.08;;;6.07;;
41755;SDS011;27435;48.480;9.258;2023-06-22T14:26:14;17.15;;;5.82;;
41755;SDS011;27435;48.480;9.258;2023-06-22T14:28:43;12.13;;;5.03;;
41755;SDS011;27435;48.480;9.258;2023-06-22T14:31:17;14.18;;;5.20;;
41755;SDS011;27435;48.480;9.258;2023-06-22T14:33:45;14.43;;;6.25;;
41755;SDS011;27435;48.480;9.258;2023-06-22T14:36:12;13.82;;;5.47;;
41755;SDS011;27435;48.480;9.258;2023-06-22T14:38:37;17.23;;;5.63;;
41755;SDS011;27435;48.480;9.258;2023-06-22T14:41:03;14.32;;;5.95;;
41755;SDS011;27435;48.480;9.258;2023-06-22T14:43:29;13.80;;;5.38;;